createdAt,value
2022-09-02T00:00:24.398Z,102678.75
2022-09-02T00:03:50.387Z,102669.66
2022-09-02T00:07:14.405Z,102674.00
2022-09-02T00:10:37.421Z,102666.56
2022-09-02T00:13:56.389Z,102661.00
2022-09-02T00:17:20.465Z,102659.00
2022-09-02T00:20:45.430Z,102656.47
2022-09-02T00:24:08.457Z,102654.97
2022-09-02T00:27:34.414Z,102647.38
2022-09-02T00:30:59.427Z,102653.16
2022-09-02T00:34:23.421Z,102642.81
2022-09-02T00:37:47.464Z,102634.13
2022-09-02T00:41:11.481Z,102635.56
2022-09-02T00:44:35.446Z,102626.34
2022-09-02T00:48:00.480Z,102626.78
2022-09-02T00:51:25.395Z,102631.00
2022-09-02T00:54:53.417Z,102623.47
2022-09-02T00:58:14.019Z,102618.28
2022-09-02T01:01:32.567Z,102605.72
2022-09-02T01:04:55.446Z,102604.31
2022-09-02T01:08:19.470Z,102595.19
2022-09-02T01:11:50.454Z,102578.50
2022-09-02T01:15:14.541Z,102568.22
2022-09-02T01:18:44.441Z,102567.38
2022-09-02T01:22:12.547Z,102563.47
2022-09-02T01:25:40.399Z,102562.78
2022-09-02T01:29:04.482Z,102556.59
2022-09-02T01:32:29.477Z,102544.31
2022-09-02T01:35:52.416Z,102535.19
2022-09-02T01:39:16.481Z,102540.53
2022-09-02T01:42:40.476Z,102539.47
2022-09-02T01:46:07.480Z,102534.03
2022-09-02T01:49:33.374Z,102523.94
2022-09-02T01:53:02.434Z,102512.16
2022-09-02T01:56:25.471Z,102518.84
2022-09-02T01:59:54.502Z,102517.38
2022-09-02T02:03:29.475Z,102513.47
2022-09-02T02:06:56.483Z,102507.88
2022-09-02T02:10:21.504Z,102509.19
2022-09-02T02:13:45.442Z,102511.19
2022-09-02T02:17:11.467Z,102503.84
2022-09-02T02:20:37.481Z,102498.69
2022-09-02T02:24:01.456Z,102493.84
2022-09-02T02:27:26.575Z,102489.97
2022-09-02T02:30:54.461Z,102483.38
2022-09-02T02:34:18.478Z,102481.53
2022-09-02T02:37:42.438Z,102487.47
2022-09-02T02:41:12.486Z,102488.09
2022-09-02T02:44:37.477Z,102480.34
2022-09-02T02:48:01.477Z,102485.09
2022-09-02T02:51:25.482Z,102473.84
2022-09-02T02:54:49.524Z,102475.84
2022-09-02T02:58:13.440Z,102474.69
2022-09-02T03:01:39.593Z,102474.94
2022-09-02T03:05:04.465Z,102468.63
2022-09-02T03:08:29.493Z,102461.63
2022-09-02T03:11:55.513Z,102451.00
2022-09-02T03:15:22.452Z,102449.84
2022-09-02T03:18:46.540Z,102452.09
2022-09-02T03:22:10.495Z,102443.69
2022-09-02T03:25:36.506Z,102440.16
2022-09-02T03:29:11.503Z,102435.00
2022-09-02T03:32:35.499Z,102437.28
2022-09-02T03:36:00.525Z,102432.78
2022-09-02T03:39:28.519Z,102420.53
2022-09-02T03:42:56.731Z,102424.19
2022-09-02T03:46:25.590Z,102428.91
2022-09-02T03:49:49.535Z,102426.78
2022-09-02T03:53:19.830Z,102418.84
2022-09-02T03:56:48.549Z,102415.19
2022-09-02T04:00:12.510Z,102408.25
2022-09-02T04:03:31.126Z,102407.84
2022-09-02T04:06:48.521Z,102403.38
2022-09-02T04:10:12.471Z,102400.13
2022-09-02T04:13:36.528Z,102394.97
2022-09-02T04:17:02.469Z,102399.81
2022-09-02T04:20:27.551Z,102396.91
2022-09-02T04:23:52.571Z,102391.34
2022-09-02T04:27:17.515Z,102391.22
2022-09-02T04:30:41.510Z,102387.69
2022-09-02T04:34:07.583Z,102387.97
2022-09-02T04:37:33.525Z,102390.22
2022-09-02T04:41:00.520Z,102392.84
2022-09-02T04:44:23.500Z,102384.28
2022-09-02T04:47:48.534Z,102376.13
2022-09-02T04:51:12.506Z,102385.31
2022-09-02T04:54:39.527Z,102382.00
2022-09-02T04:58:04.498Z,102375.28
2022-09-02T05:01:34.677Z,102382.81
2022-09-02T05:05:03.578Z,102389.16
2022-09-02T05:08:31.488Z,102379.13
2022-09-02T05:11:56.573Z,102381.00
2022-09-02T05:15:29.552Z,102385.38
2022-09-02T05:18:52.541Z,102389.63
2022-09-02T05:22:25.572Z,102382.06
2022-09-02T05:25:52.593Z,102384.31
2022-09-02T05:29:17.576Z,102391.03
2022-09-02T05:32:42.592Z,102393.84
2022-09-02T05:36:06.529Z,102398.28
2022-09-02T05:39:30.613Z,102396.13
2022-09-02T05:42:56.571Z,102387.69
2022-09-02T05:46:22.580Z,102384.00
2022-09-02T05:49:47.583Z,102386.09
2022-09-02T05:53:14.566Z,102379.44
2022-09-02T05:56:38.617Z,102388.16
2022-09-02T06:00:04.555Z,102384.78
2022-09-02T06:03:29.550Z,102386.88
2022-09-02T06:06:49.086Z,102392.53
2022-09-02T06:10:06.602Z,102390.16
2022-09-02T06:13:30.545Z,102394.53
2022-09-02T06:16:49.614Z,102385.38
2022-09-02T06:20:27.589Z,102406.84
2022-09-02T06:23:53.559Z,102404.34
2022-09-02T06:27:17.569Z,102409.44
2022-09-02T06:30:43.589Z,102413.81
2022-09-02T06:34:13.598Z,102415.94
2022-09-02T06:37:39.577Z,102407.78
2022-09-02T06:41:09.581Z,102412.06
2022-09-02T06:44:34.615Z,102410.03
2022-09-02T06:47:59.628Z,102404.88
2022-09-02T06:51:34.546Z,102401.16
2022-09-02T06:54:59.632Z,102401.31
2022-09-02T06:58:25.578Z,102394.69
2022-09-02T07:01:49.782Z,102395.75
2022-09-02T07:05:23.584Z,102400.94
2022-09-02T07:08:47.636Z,102404.78
2022-09-02T07:12:14.544Z,102410.59
2022-09-02T07:15:44.634Z,102401.13
2022-09-02T07:19:15.116Z,102397.97
2022-09-02T07:22:44.769Z,102401.44
2022-09-02T07:26:10.621Z,102399.78
2022-09-02T07:29:36.597Z,102402.91
2022-09-02T07:33:02.616Z,102405.88
2022-09-02T07:36:29.627Z,102409.44
2022-09-02T07:39:54.579Z,102404.25
2022-09-02T07:43:21.599Z,102400.66
2022-09-02T07:46:46.879Z,102398.47
2022-09-02T07:50:19.162Z,102409.63
2022-09-02T07:53:45.624Z,102403.72
2022-09-02T07:57:10.554Z,102402.63
2022-09-02T08:00:35.607Z,102397.44
2022-09-02T08:04:02.848Z,102395.81
2022-09-02T08:07:26.657Z,102398.91
2022-09-02T08:10:51.711Z,102390.81
2022-09-02T08:14:16.737Z,102399.19
2022-09-02T08:17:40.621Z,102397.06
2022-09-02T08:21:04.659Z,102392.94
2022-09-02T08:24:28.641Z,102395.84
2022-09-02T08:27:52.694Z,102394.78
2022-09-02T08:31:21.687Z,102403.69
2022-09-02T08:34:45.626Z,102399.13
2022-09-02T08:38:09.635Z,102398.13
2022-09-02T08:42:12.634Z,102400.00
2022-09-02T08:45:38.615Z,102401.03
2022-09-02T08:49:08.671Z,102414.56
2022-09-02T08:52:54.645Z,102403.31
2022-09-02T08:56:21.617Z,102406.44
2022-09-02T08:59:45.661Z,102409.59
2022-09-02T09:03:12.606Z,102407.31
2022-09-02T09:07:01.635Z,102399.63
2022-09-02T09:10:33.652Z,102386.75
2022-09-02T09:14:03.237Z,102387.97
2022-09-02T09:17:34.696Z,102385.44
2022-09-02T09:20:59.643Z,102381.53
2022-09-02T09:24:36.645Z,102387.53
2022-09-02T09:28:00.643Z,102386.28
2022-09-02T09:31:27.685Z,102385.50
2022-09-02T09:35:11.690Z,102383.19
2022-09-02T09:38:46.618Z,102380.53
2022-09-02T09:42:12.624Z,102381.09
2022-09-02T09:45:51.758Z,102381.72
2022-09-02T09:49:16.712Z,102376.75
2022-09-02T09:52:42.616Z,102373.44
2022-09-02T09:56:37.226Z,102362.81
2022-09-02T10:00:04.650Z,102360.13
2022-09-02T10:03:37.684Z,102362.00
2022-09-02T10:07:01.667Z,102360.97
2022-09-02T10:10:34.668Z,102370.94
2022-09-02T10:13:58.654Z,102378.19
2022-09-02T10:17:34.626Z,102382.97
2022-09-02T10:21:33.642Z,102375.91
2022-09-02T10:25:09.667Z,102369.28
2022-09-02T10:29:00.821Z,102364.28
2022-09-02T10:32:49.704Z,102367.59
2022-09-02T10:36:54.638Z,102365.13
2022-09-02T10:40:46.722Z,102355.34
2022-09-02T10:44:28.674Z,102356.59
2022-09-02T10:47:54.684Z,102343.31
2022-09-02T10:51:24.706Z,102353.06
2022-09-02T10:55:00.691Z,102342.03
2022-09-02T10:58:40.669Z,102343.94
2022-09-02T11:02:14.653Z,102342.06
2022-09-02T11:05:57.654Z,102342.69
2022-09-02T11:09:46.647Z,102332.06
2022-09-02T11:13:19.664Z,102341.34
2022-09-02T11:16:50.689Z,102331.75
2022-09-02T11:20:28.732Z,102338.03
2022-09-02T11:24:30.669Z,102339.88
2022-09-02T11:28:11.982Z,102349.38
2022-09-02T11:31:56.682Z,102342.97
2022-09-02T11:35:21.691Z,102327.53
2022-09-02T11:39:36.631Z,102329.00
2022-09-02T11:43:50.713Z,102325.97
2022-09-02T11:47:20.704Z,102327.97
2022-09-02T11:51:10.736Z,102321.66
2022-09-02T11:54:35.876Z,102320.63
2022-09-02T11:58:09.729Z,102316.34
2022-09-02T12:01:49.706Z,102311.28
2022-09-02T12:05:43.863Z,102316.84
2022-09-02T12:09:07.741Z,102318.16
2022-09-02T12:12:54.710Z,102324.09
2022-09-02T12:16:30.802Z,102324.34
2022-09-02T12:19:59.748Z,102319.09
2022-09-02T12:23:25.712Z,102320.50
2022-09-02T12:26:56.752Z,102314.06
2022-09-02T12:30:24.710Z,102313.44
2022-09-02T12:33:53.781Z,102309.94
2022-09-02T12:37:19.671Z,102317.97
2022-09-02T12:40:49.807Z,102310.78
2022-09-02T12:44:38.719Z,102309.06
2022-09-02T12:48:16.704Z,102302.28
2022-09-02T12:52:10.717Z,102303.84
2022-09-02T12:55:45.720Z,102295.97
2022-09-02T12:59:10.711Z,102281.75
2022-09-02T13:02:53.673Z,102278.03
2022-09-02T13:06:21.721Z,102276.28
2022-09-02T13:10:23.682Z,102263.72
2022-09-02T13:14:16.783Z,102258.19
2022-09-02T13:18:18.387Z,102257.91
2022-09-02T13:21:41.766Z,102258.38
2022-09-02T13:25:38.739Z,102252.25
2022-09-02T13:29:21.767Z,102246.44
2022-09-02T13:32:46.684Z,102235.41
2022-09-02T13:36:15.716Z,102238.41
2022-09-02T13:39:43.752Z,102238.75
2022-09-02T13:43:13.719Z,102235.25
2022-09-02T13:46:37.795Z,102225.72
2022-09-02T13:50:05.728Z,102215.28
2022-09-02T13:54:22.119Z,102210.72
2022-09-02T13:57:42.754Z,102203.06
2022-09-02T14:01:06.825Z,102197.88
2022-09-02T14:04:32.711Z,102196.59
2022-09-02T14:07:58.727Z,102181.06
2022-09-02T14:11:22.788Z,102175.91
2022-09-02T14:14:47.739Z,102162.69
2022-09-02T14:18:29.745Z,102152.34
2022-09-02T14:22:01.745Z,102147.63
2022-09-02T14:25:32.737Z,102136.44
2022-09-02T14:28:56.703Z,102143.16
2022-09-02T14:32:28.093Z,102141.56
2022-09-02T14:40:25.784Z,102132.97
2022-09-02T14:44:07.724Z,102135.72
2022-09-02T14:47:32.788Z,102128.19
2022-09-02T14:51:02.129Z,102138.28
2022-09-02T14:54:26.780Z,102138.59
2022-09-02T14:57:51.768Z,102136.34
2022-09-02T15:01:16.821Z,102133.28
2022-09-02T15:04:43.799Z,102120.47
2022-09-02T15:08:08.748Z,102125.97
2022-09-02T15:11:33.768Z,102126.16
2022-09-02T15:14:57.816Z,102121.94
2022-09-02T15:18:29.708Z,102116.97
2022-09-02T15:21:56.773Z,102113.31
2022-09-02T15:25:21.727Z,102121.59
2022-09-02T15:28:46.815Z,102118.78
2022-09-02T15:32:11.728Z,102114.16
2022-09-02T15:35:35.772Z,102114.09
2022-09-02T15:39:01.733Z,102124.91
2022-09-02T15:42:26.767Z,102125.25
2022-09-02T15:46:00.826Z,102125.00
2022-09-02T15:49:26.817Z,102125.31
2022-09-02T15:52:50.773Z,102116.47
2022-09-02T15:56:15.776Z,102113.41
2022-09-02T15:59:41.747Z,102118.41
2022-09-02T16:02:59.859Z,102126.19
2022-09-02T16:06:23.809Z,102120.63
2022-09-02T16:09:48.788Z,102117.97
2022-09-02T16:13:12.760Z,102105.66
2022-09-02T16:16:37.852Z,102116.25
2022-09-02T16:19:55.464Z,102117.78
2022-09-02T16:23:12.817Z,102118.06
2022-09-02T16:26:43.804Z,102121.09
2022-09-02T16:30:07.789Z,102121.38
2022-09-02T16:33:32.751Z,102108.88
2022-09-02T16:37:01.913Z,102101.53
2022-09-02T16:40:28.777Z,102103.94
2022-09-02T16:43:53.833Z,102101.25
2022-09-02T16:47:16.804Z,102101.13
2022-09-02T16:50:42.778Z,102097.94
2022-09-02T16:54:17.304Z,102078.88
2022-09-02T16:57:45.782Z,102085.72
2022-09-02T17:01:09.848Z,102084.59
2022-09-02T17:04:33.826Z,102087.09
2022-09-02T17:07:56.799Z,102077.00
2022-09-02T17:11:37.791Z,102088.88
2022-09-02T17:15:00.754Z,102084.81
2022-09-02T17:18:24.827Z,102081.38
2022-09-02T17:21:59.794Z,102078.16
2022-09-02T17:25:23.776Z,102089.22
2022-09-02T17:28:54.795Z,102081.72
2022-09-02T17:32:18.822Z,102092.06
2022-09-02T17:35:42.796Z,102080.41
2022-09-02T17:39:15.850Z,102083.66
2022-09-02T17:42:39.808Z,102080.84
2022-09-02T17:46:03.894Z,102085.69
2022-09-02T17:49:28.867Z,102084.72
2022-09-02T17:52:53.779Z,102079.94
2022-09-02T17:56:48.813Z,102082.03
2022-09-02T18:00:18.826Z,102086.97
2022-09-02T18:04:02.936Z,102078.56
2022-09-02T18:07:49.849Z,102076.16
2022-09-02T18:11:15.866Z,102069.16
2022-09-02T18:14:59.803Z,102067.50
2022-09-02T18:18:25.087Z,102064.47
2022-09-02T18:22:03.878Z,102054.19
2022-09-02T18:25:37.830Z,102064.72
2022-09-02T18:29:42.841Z,102070.94
2022-09-02T18:33:16.867Z,102072.59
2022-09-02T18:37:17.802Z,102070.09
2022-09-02T18:40:56.814Z,102068.13
2022-09-02T18:44:48.867Z,102055.78
2022-09-02T18:48:16.840Z,102058.72
2022-09-02T18:51:51.831Z,102050.75
2022-09-02T18:55:28.839Z,102051.63
2022-09-02T18:59:00.003Z,102056.19
2022-09-02T19:02:47.857Z,102048.41
2022-09-02T19:06:11.832Z,102049.69
2022-09-02T19:09:36.866Z,102057.00
2022-09-02T19:13:00.882Z,102061.69
2022-09-02T19:16:25.821Z,102060.72
2022-09-02T19:19:50.834Z,102056.19
2022-09-02T19:23:14.857Z,102053.78
2022-09-02T19:26:48.823Z,102047.81
2022-09-02T19:30:22.822Z,102049.25
2022-09-02T19:33:48.839Z,102047.31
2022-09-02T19:37:15.857Z,102047.25
2022-09-02T19:40:48.873Z,102038.09
2022-09-02T19:44:11.817Z,102056.41
2022-09-02T19:48:05.577Z,102049.28
2022-09-02T19:51:27.186Z,102047.81
2022-09-02T19:54:52.906Z,102040.59
2022-09-02T19:58:17.812Z,102027.13
2022-09-02T20:01:43.926Z,102028.34
2022-09-02T20:05:07.848Z,102029.59
2022-09-02T20:08:38.829Z,102035.72
2022-09-02T20:12:02.834Z,102020.69
2022-09-02T20:15:26.873Z,102023.38
2022-09-02T20:18:53.863Z,102020.59
2022-09-02T20:22:12.648Z,102018.75
2022-09-02T20:25:43.842Z,102035.31
2022-09-02T20:29:20.911Z,102027.66
2022-09-02T20:33:03.873Z,102023.72
2022-09-02T20:36:39.913Z,102020.56
2022-09-02T20:40:12.871Z,102029.78
2022-09-02T20:43:48.912Z,102038.28
2022-09-02T20:47:29.871Z,102036.16
2022-09-02T20:51:24.834Z,102023.47
2022-09-02T20:55:00.936Z,102021.44
2022-09-02T20:59:05.878Z,102022.00
2022-09-02T21:02:32.951Z,102012.75
2022-09-02T21:05:59.829Z,102017.75
2022-09-02T21:09:28.880Z,102005.31
2022-09-02T21:13:10.851Z,102009.13
2022-09-02T21:16:53.881Z,102004.19
2022-09-02T21:20:26.897Z,101987.22
2022-09-02T21:24:02.913Z,101984.28
2022-09-02T21:27:42.912Z,101978.44
2022-09-02T21:31:11.960Z,101979.97
2022-09-02T21:34:41.854Z,101974.31
2022-09-02T21:38:11.874Z,101972.91
2022-09-02T21:41:54.890Z,101981.13
2022-09-02T21:45:39.937Z,101979.16
2022-09-02T21:49:13.922Z,101977.34
2022-09-02T21:52:47.944Z,101968.69
2022-09-02T21:56:32.904Z,101964.19
2022-09-02T22:00:06.891Z,101967.47
2022-09-02T22:03:56.896Z,101959.19
2022-09-02T22:07:43.937Z,101948.69
2022-09-02T22:11:34.918Z,101943.06
2022-09-02T22:15:22.934Z,101941.75
2022-09-02T22:19:07.914Z,101940.59
2022-09-02T22:22:36.859Z,101924.59
2022-09-02T22:26:01.958Z,101926.88
2022-09-02T22:30:10.942Z,101900.94
2022-09-02T22:33:37.920Z,101912.44
2022-09-02T22:37:24.924Z,101909.19
2022-09-02T22:40:54.909Z,101905.38
2022-09-02T22:44:21.879Z,101913.63
2022-09-02T22:48:05.940Z,101898.81
2022-09-02T22:52:01.912Z,101878.56
2022-09-02T22:55:25.878Z,101885.91
2022-09-02T22:59:08.965Z,101879.59
2022-09-02T23:02:52.927Z,101874.09
2022-09-02T23:06:44.970Z,101874.63
2022-09-02T23:10:08.945Z,101871.22
2022-09-02T23:13:39.980Z,101861.97
2022-09-02T23:17:11.948Z,101854.63
2022-09-02T23:20:47.954Z,101852.56
2022-09-02T23:24:24.083Z,101859.16
2022-09-02T23:28:06.225Z,101857.09
2022-09-02T23:31:53.978Z,101849.38
2022-09-02T23:35:45.931Z,101855.75
2022-09-02T23:39:40.028Z,101846.56
2022-09-02T23:43:05.957Z,101842.53
2022-09-02T23:46:52.012Z,101819.28
2022-09-02T23:50:35.961Z,101822.47
2022-09-02T23:54:20.961Z,101809.09
2022-09-02T23:57:59.955Z,101800.22
